createdAt,value
2024-02-11T00:01:19.646Z,23.85
2024-02-11T00:06:41.614Z,29.90
2024-02-11T00:12:06.400Z,24.38
2024-02-11T00:17:28.331Z,23.77
2024-02-11T00:22:50.526Z,36.55
2024-02-11T00:28:14.452Z,29.38
2024-02-11T00:33:36.342Z,27.40
2024-02-11T00:38:58.219Z,29.60
2024-02-11T00:44:20.370Z,33.95
2024-02-11T00:49:42.158Z,35.95
2024-02-11T00:55:04.106Z,36.17
2024-02-11T01:00:25.935Z,40.45
2024-02-11T01:05:47.804Z,31.92
2024-02-11T01:11:09.906Z,45.90
2024-02-11T01:16:31.830Z,38.33
2024-02-11T01:21:55.473Z,33.70
2024-02-11T01:27:17.334Z,35.40
2024-02-11T01:32:40.125Z,41.90
2024-02-11T01:38:02.145Z,40.85
2024-02-11T01:43:24.475Z,36.72
2024-02-11T01:48:46.572Z,40.97
2024-02-11T01:54:08.318Z,37.95
2024-02-11T01:59:33.715Z,46.47
2024-02-11T02:04:56.092Z,42.63
2024-02-11T02:10:17.970Z,48.60
2024-02-11T02:15:39.823Z,52.22
2024-02-11T02:21:08.045Z,49.10
2024-02-11T02:26:29.803Z,48.40
2024-02-11T02:31:51.594Z,49.95
2024-02-11T02:37:13.732Z,53.88
2024-02-11T02:42:35.501Z,51.65
2024-02-11T02:47:57.327Z,50.42
2024-02-11T02:53:19.053Z,52.92
2024-02-11T02:58:42.410Z,52.30
2024-02-11T03:04:04.622Z,46.83
2024-02-11T03:09:26.401Z,47.85
2024-02-11T03:14:50.470Z,49.33
2024-02-11T03:20:15.924Z,48.42
2024-02-11T03:25:37.999Z,47.35
2024-02-11T03:31:00.558Z,52.00
2024-02-11T03:36:22.205Z,43.10
2024-02-11T03:41:43.927Z,45.30
2024-02-11T03:47:05.823Z,38.83
2024-02-11T03:52:27.559Z,38.13
2024-02-11T03:57:49.274Z,39.05
2024-02-11T04:03:12.384Z,47.22
2024-02-11T04:08:36.068Z,42.78
2024-02-11T04:13:57.887Z,41.13
2024-02-11T04:19:22.116Z,45.45
2024-02-11T04:24:47.158Z,43.53
2024-02-11T04:30:13.980Z,47.60
2024-02-11T04:35:37.055Z,41.90
2024-02-11T04:41:01.917Z,43.85
2024-02-11T04:46:24.189Z,45.38
2024-02-11T04:51:45.762Z,46.22
2024-02-11T04:57:08.060Z,44.25
2024-02-11T05:02:29.774Z,55.38
2024-02-11T05:07:51.541Z,49.55
2024-02-11T05:13:14.952Z,49.92
2024-02-11T05:18:40.282Z,45.17
2024-02-11T05:24:02.518Z,53.42
2024-02-11T05:29:25.378Z,43.25
2024-02-11T05:34:47.154Z,44.10
2024-02-11T05:40:10.806Z,48.53
2024-02-11T05:45:33.821Z,57.85
2024-02-11T05:50:55.606Z,46.22
2024-02-11T05:56:17.213Z,44.08
2024-02-11T06:01:39.038Z,49.50
2024-02-11T06:07:01.022Z,57.03
2024-02-11T06:12:22.789Z,49.13
2024-02-11T06:17:44.598Z,50.40
2024-02-11T06:23:09.569Z,56.70
2024-02-11T06:28:31.441Z,51.20
2024-02-11T06:33:54.851Z,48.78
2024-02-11T06:39:16.701Z,45.35
2024-02-11T06:44:42.655Z,44.03
2024-02-11T06:50:05.874Z,55.47
2024-02-11T06:55:27.680Z,45.30
2024-02-11T07:00:49.496Z,55.60
2024-02-11T07:06:12.403Z,49.17
2024-02-11T07:11:35.054Z,51.85
2024-02-11T07:16:58.041Z,53.75
2024-02-11T07:22:20.181Z,53.95
2024-02-11T07:27:41.913Z,60.58
2024-02-11T07:33:04.020Z,62.17
2024-02-11T07:38:27.524Z,51.30
2024-02-11T07:43:50.993Z,47.90
2024-02-11T07:49:14.443Z,49.75
2024-02-11T07:54:36.200Z,54.67
2024-02-11T07:59:59.553Z,65.18
2024-02-11T08:05:23.905Z,55.30
2024-02-11T08:10:46.939Z,75.25
2024-02-11T08:16:12.265Z,59.65
2024-02-11T08:21:34.048Z,69.53
2024-02-11T08:26:55.821Z,73.10
2024-02-11T08:32:17.489Z,65.97
2024-02-11T08:37:39.902Z,78.68
2024-02-11T08:43:02.763Z,97.63
2024-02-11T08:48:24.485Z,84.45
2024-02-11T08:53:46.288Z,95.30
2024-02-11T08:59:08.080Z,82.18
2024-02-11T09:04:30.023Z,68.90
2024-02-11T09:09:51.768Z,65.85
2024-02-11T09:15:18.203Z,71.30
2024-02-11T09:20:40.984Z,61.53
2024-02-11T09:26:04.034Z,61.40
2024-02-11T09:31:26.513Z,63.45
2024-02-11T09:36:48.421Z,69.38
2024-02-11T09:42:21.141Z,55.13
2024-02-11T09:47:46.882Z,67.13
2024-02-11T09:53:12.690Z,73.30
2024-02-11T10:04:01.148Z,83.93
2024-02-11T10:09:23.439Z,71.27
2024-02-11T10:14:56.216Z,69.00
2024-02-11T10:20:18.958Z,67.90
2024-02-11T10:25:41.161Z,70.00
2024-02-11T10:31:03.092Z,56.75
2024-02-11T10:36:25.930Z,65.03
2024-02-11T10:41:47.683Z,56.72
2024-02-11T10:47:10.238Z,68.25
2024-02-11T10:52:38.046Z,59.30
2024-02-11T10:58:03.109Z,63.13
2024-02-11T11:03:29.641Z,52.17
2024-02-11T11:08:52.371Z,53.63
2024-02-11T11:14:14.239Z,50.55
2024-02-11T11:19:37.056Z,55.85
2024-02-11T11:24:59.271Z,49.78
2024-02-11T11:30:21.335Z,48.78
2024-02-11T11:35:43.181Z,43.22
2024-02-11T11:41:07.998Z,46.42
2024-02-11T11:46:33.397Z,40.72
2024-02-11T11:51:59.897Z,35.03
2024-02-11T11:57:22.426Z,41.75
2024-02-11T12:02:44.173Z,38.13
2024-02-11T12:08:06.528Z,34.05
2024-02-11T12:13:32.672Z,39.30
2024-02-11T12:18:54.507Z,32.63
2024-02-11T12:24:16.862Z,40.55
2024-02-11T12:29:39.658Z,42.63
2024-02-11T12:35:02.359Z,39.00
2024-02-11T12:40:24.742Z,39.47
2024-02-11T12:45:46.557Z,41.13
2024-02-11T12:51:12.965Z,43.95
2024-02-11T12:56:34.823Z,47.75
2024-02-11T13:01:57.557Z,42.00
2024-02-11T13:07:19.142Z,46.05
2024-02-11T13:12:41.123Z,37.85
2024-02-11T13:18:03.039Z,41.60
2024-02-11T13:23:25.343Z,39.15
2024-02-11T13:28:47.603Z,42.83
2024-02-11T13:34:09.610Z,36.53
2024-02-11T13:39:33.862Z,30.05
2024-02-11T13:44:55.927Z,34.60
2024-02-11T13:50:17.562Z,32.05
2024-02-11T13:55:40.737Z,36.50
2024-02-11T14:01:02.559Z,38.40
2024-02-11T14:06:24.235Z,31.42
2024-02-11T14:11:45.968Z,34.53
2024-02-11T14:17:07.961Z,30.75
2024-02-11T14:22:29.683Z,29.08
2024-02-11T14:27:52.564Z,21.75
2024-02-11T14:33:14.188Z,31.00
2024-02-11T14:38:41.301Z,32.35
2024-02-11T14:44:03.994Z,29.20
2024-02-11T14:49:26.222Z,24.13
2024-02-11T14:54:48.350Z,28.55
2024-02-11T15:00:12.429Z,27.08
2024-02-11T15:05:34.276Z,29.17
2024-02-11T15:10:56.936Z,26.42
2024-02-11T15:16:18.916Z,22.10
2024-02-11T15:21:40.842Z,13.68
2024-02-11T15:27:02.739Z,9.15
2024-02-11T15:32:28.264Z,8.93
2024-02-11T15:37:52.357Z,10.77
2024-02-11T15:43:15.191Z,10.75
2024-02-11T15:48:37.214Z,9.60
2024-02-11T15:53:59.224Z,13.88
2024-02-11T15:59:20.970Z,10.02
2024-02-11T16:04:44.244Z,12.43
2024-02-11T16:10:11.882Z,9.80
2024-02-11T16:15:34.407Z,13.48
2024-02-11T16:20:58.782Z,10.63
2024-02-11T16:26:21.631Z,13.02
2024-02-11T16:31:43.885Z,9.82
2024-02-11T16:37:05.622Z,9.77
2024-02-11T16:42:27.222Z,14.13
2024-02-11T16:47:49.695Z,15.88
2024-02-11T16:53:11.585Z,18.63
2024-02-11T16:58:34.384Z,18.35
2024-02-11T17:04:01.261Z,19.63
2024-02-11T17:09:23.075Z,18.08
2024-02-11T17:14:46.251Z,21.48
2024-02-11T17:20:09.268Z,17.05
2024-02-11T17:25:31.287Z,25.90
2024-02-11T17:30:55.955Z,21.05
2024-02-11T17:36:18.178Z,25.33
2024-02-11T17:41:50.475Z,26.75
2024-02-11T17:47:12.217Z,27.73
2024-02-11T17:52:37.297Z,36.10
2024-02-11T17:58:00.451Z,34.53
2024-02-11T18:03:23.608Z,34.92
2024-02-11T18:08:45.302Z,37.38
2024-02-11T18:14:09.289Z,41.33
2024-02-11T18:19:32.608Z,36.92
2024-02-11T18:24:55.402Z,42.92
2024-02-11T18:30:17.007Z,42.45
2024-02-11T18:35:39.019Z,41.42
2024-02-11T18:41:01.891Z,44.72
2024-02-11T18:46:23.859Z,40.00
2024-02-11T18:51:45.595Z,44.47
2024-02-11T18:57:14.402Z,48.53
2024-02-11T19:02:36.244Z,52.38
2024-02-11T19:07:58.066Z,46.88
2024-02-11T19:13:20.308Z,44.78
2024-02-11T19:18:42.134Z,47.00
2024-02-11T19:24:04.024Z,55.28
2024-02-11T19:29:26.912Z,56.60
2024-02-11T19:34:49.506Z,49.13
2024-02-11T19:40:14.486Z,54.28
2024-02-11T19:45:38.006Z,51.07
2024-02-11T19:51:00.293Z,60.40
2024-02-11T19:56:22.287Z,55.25
2024-02-11T20:01:47.773Z,58.45
2024-02-11T20:07:09.602Z,52.47
2024-02-11T20:12:31.360Z,51.80
2024-02-11T20:17:54.304Z,49.67
2024-02-11T20:23:17.420Z,67.00
2024-02-11T20:28:40.233Z,57.80
2024-02-11T20:34:02.099Z,62.03
2024-02-11T20:39:24.031Z,65.13
2024-02-11T20:44:46.507Z,60.17
2024-02-11T20:50:09.910Z,55.47
2024-02-11T20:55:31.633Z,69.22
2024-02-11T21:00:53.457Z,55.47
2024-02-11T21:06:16.177Z,62.53
2024-02-11T21:11:38.765Z,60.95
2024-02-11T21:17:00.596Z,63.15
2024-02-11T21:22:23.853Z,72.28
2024-02-11T21:27:53.268Z,65.20
2024-02-11T21:33:21.248Z,62.40
2024-02-11T21:38:44.377Z,63.17
2024-02-11T21:44:09.807Z,65.07
2024-02-11T21:49:32.577Z,63.40
2024-02-11T21:54:54.289Z,68.25
2024-02-11T22:00:16.413Z,63.20
2024-02-11T22:05:38.570Z,76.85
2024-02-11T22:11:00.624Z,67.78
2024-02-11T22:16:22.242Z,67.55
2024-02-11T22:21:44.986Z,83.95
2024-02-11T22:27:07.353Z,69.82
2024-02-11T22:32:29.338Z,62.65
2024-02-11T22:37:51.502Z,62.90
2024-02-11T22:43:13.407Z,65.82
2024-02-11T22:48:35.649Z,61.80
2024-02-11T22:53:57.438Z,58.63
2024-02-11T22:59:19.055Z,74.28
2024-02-11T23:04:41.197Z,61.63
2024-02-11T23:10:02.950Z,55.65
2024-02-11T23:15:24.635Z,63.95
2024-02-11T23:20:46.362Z,58.72
2024-02-11T23:26:08.470Z,66.15
2024-02-11T23:31:30.491Z,52.72
2024-02-11T23:36:52.291Z,50.95
2024-02-11T23:42:14.165Z,54.35
2024-02-11T23:47:37.200Z,57.80
2024-02-11T23:52:59.142Z,59.58
2024-02-11T23:58:21.142Z,64.97
